sensor_id;sensor_type;location;lat;lon;timestamp;temperature;humidity
5304;DHT22;2674;49.722;10.892;2024-01-15T00:02:08;-3.70;99.90
5304;DHT22;2674;49.722;10.892;2024-01-15T00:04:40;-3.70;99.90
5304;DHT22;2674;49.722;10.892;2024-01-15T00:07:07;-3.70;99.90
5304;DHT22;2674;49.722;10.892;2024-01-15T00:09:33;-3.60;99.90
5304;DHT22;2674;49.722;10.892;2024-01-15T00:12:00;-3.60;99.90
5304;DHT22;2674;49.722;10.892;2024-01-15T00:14:26;-3.60;99.90
5304;DHT22;2674;49.722;10.892;2024-01-15T00:16:52;-3.60;99.90
5304;DHT22;2674;49.722;10.892;2024-01-15T00:19:21;-3.70;99.90
5304;DHT22;2674;49.722;10.892;2024-01-15T00:21:47;-3.60;99.90
5304;DHT22;2674;49.722;10.892;2024-01-15T00:24:13;-3.70;99.90
5304;DHT22;2674;49.722;10.892;2024-01-15T00:26:39;-3.70;99.90
5304;DHT22;2674;49.722;10.892;2024-01-15T00:29:07;-3.70;99.90
5304;DHT22;2674;49.722;10.892;2024-01-15T00:31:33;-3.70;99.90
5304;DHT22;2674;49.722;10.892;2024-01-15T00:33:59;-3.70;99.90
5304;DHT22;2674;49.722;10.892;2024-01-15T00:36:25;-3.70;99.90
5304;DHT22;2674;49.722;10.892;2024-01-15T00:38:51;-3.70;99.90
5304;DHT22;2674;49.722;10.892;2024-01-15T00:41:18;-3.70;99.90
5304;DHT22;2674;49.722;10.892;2024-01-15T00:43:47;-3.70;99.90
5304;DHT22;2674;49.722;10.892;2024-01-15T00:46:15;-3.70;99.90
5304;DHT22;2674;49.722;10.892;2024-01-15T00:48:41;-3.70;99.90
5304;DHT22;2674;49.722;10.892;2024-01-15T00:51:07;-3.80;99.90
5304;DHT22;2674;49.722;10.892;2024-01-15T00:53:32;-3.80;99.90
5304;DHT22;2674;49.722;10.892;2024-01-15T00:55:58;-3.80;99.90
5304;DHT22;2674;49.722;10.892;2024-01-15T00:58:25;-3.70;99.90
5304;DHT22;2674;49.722;10.892;2024-01-15T01:00:51;-3.80;99.90
5304;DHT22;2674;49.722;10.892;2024-01-15T01:03:17;-3.70;99.90
5304;DHT22;2674;49.722;10.892;2024-01-15T01:05:42;-3.70;99.90
5304;DHT22;2674;49.722;10.892;2024-01-15T01:08:09;-3.70;99.90
5304;DHT22;2674;49.722;10.892;2024-01-15T01:10:35;-3.70;99.90
5304;DHT22;2674;49.722;10.892;2024-01-15T01:13:00;-3.70;99.90
5304;DHT22;2674;49.722;10.892;2024-01-15T01:15:27;-3.70;99.90
5304;DHT22;2674;49.722;10.892;2024-01-15T01:17:53;-3.70;99.90
5304;DHT22;2674;49.722;10.892;2024-01-15T01:20:18;-3.70;99.90
5304;DHT22;2674;49.722;10.892;2024-01-15T01:22:44;-3.60;99.90
5304;DHT22;2674;49.722;10.892;2024-01-15T01:25:10;-3.70;99.90
5304;DHT22;2674;49.722;10.892;2024-01-15T01:27:36;-3.60;99.90
5304;DHT22;2674;49.722;10.892;2024-01-15T01:30:02;-3.60;99.90
5304;DHT22;2674;49.722;10.892;2024-01-15T01:32:28;-3.60;99.90
5304;DHT22;2674;49.722;10.892;2024-01-15T01:34:54;-3.60;99.90
5304;DHT22;2674;49.722;10.892;2024-01-15T01:37:20;-3.60;99.90
5304;DHT22;2674;49.722;10.892;2024-01-15T01:39:45;-3.60;99.90
5304;DHT22;2674;49.722;10.892;2024-01-15T01:42:11;-3.40;99.90
5304;DHT22;2674;49.722;10.892;2024-01-15T01:44:38;-3.50;99.90
5304;DHT22;2674;49.722;10.892;2024-01-15T01:47:04;-3.50;99.90
5304;DHT22;2674;49.722;10.892;2024-01-15T01:49:31;-3.50;99.90
5304;DHT22;2674;49.722;10.892;2024-01-15T01:51:59;-3.50;99.90
5304;DHT22;2674;49.722;10.892;2024-01-15T01:54:27;-3.50;99.90
5304;DHT22;2674;49.722;10.892;2024-01-15T01:56:54;-3.50;99.90
5304;DHT22;2674;49.722;10.892;2024-01-15T01:59:21;-3.40;99.90
5304;DHT22;2674;49.722;10.892;2024-01-15T02:01:49;-3.40;99.90
5304;DHT22;2674;49.722;10.892;2024-01-15T02:04:16;-3.40;99.90
5304;DHT22;2674;49.722;10.892;2024-01-15T02:06:42;-3.40;99.90
5304;DHT22;2674;49.722;10.892;2024-01-15T02:09:09;-3.40;99.90
5304;DHT22;2674;49.722;10.892;2024-01-15T02:11:36;-3.40;99.90
5304;DHT22;2674;49.722;10.892;2024-01-15T02:14:02;-3.40;99.90
5304;DHT22;2674;49.722;10.892;2024-01-15T02:16:28;-3.40;99.90
5304;DHT22;2674;49.722;10.892;2024-01-15T02:18:54;-3.40;99.90
5304;DHT22;2674;49.722;10.892;2024-01-15T02:21:20;-3.40;99.90
5304;DHT22;2674;49.722;10.892;2024-01-15T02:23:45;-3.30;99.90
5304;DHT22;2674;49.722;10.892;2024-01-15T02:26:12;-3.30;99.90
5304;DHT22;2674;49.722;10.892;2024-01-15T02:28:39;-3.30;99.90
5304;DHT22;2674;49.722;10.892;2024-01-15T02:31:05;-3.30;99.90
5304;DHT22;2674;49.722;10.892;2024-01-15T02:33:30;-3.30;99.90
5304;DHT22;2674;49.722;10.892;2024-01-15T02:35:56;-3.20;99.90
5304;DHT22;2674;49.722;10.892;2024-01-15T02:38:22;-3.20;99.90
5304;DHT22;2674;49.722;10.892;2024-01-15T02:40:49;-3.20;99.90
5304;DHT22;2674;49.722;10.892;2024-01-15T02:43:15;-3.20;99.90
5304;DHT22;2674;49.722;10.892;2024-01-15T02:45:41;-3.20;99.90
5304;DHT22;2674;49.722;10.892;2024-01-15T02:48:07;-3.20;99.90
5304;DHT22;2674;49.722;10.892;2024-01-15T02:50:32;-3.20;99.90
5304;DHT22;2674;49.722;10.892;2024-01-15T02:52:58;-3.10;99.90
5304;DHT22;2674;49.722;10.892;2024-01-15T02:55:24;-3.10;99.90
5304;DHT22;2674;49.722;10.892;2024-01-15T02:57:50;-3.10;99.90
5304;DHT22;2674;49.722;10.892;2024-01-15T03:00:16;-3.10;99.90
5304;DHT22;2674;49.722;10.892;2024-01-15T03:02:45;-3.10;99.90
5304;DHT22;2674;49.722;10.892;2024-01-15T03:05:10;-3.10;99.90
5304;DHT22;2674;49.722;10.892;2024-01-15T03:07:36;-3.00;99.90
5304;DHT22;2674;49.722;10.892;2024-01-15T03:10:02;-3.00;99.90
5304;DHT22;2674;49.722;10.892;2024-01-15T03:12:28;-3.00;99.90
5304;DHT22;2674;49.722;10.892;2024-01-15T03:14:54;-3.00;99.90
5304;DHT22;2674;49.722;10.892;2024-01-15T03:17:20;-2.90;99.90
5304;DHT22;2674;49.722;10.892;2024-01-15T03:19:45;-2.90;99.90
5304;DHT22;2674;49.722;10.892;2024-01-15T03:22:11;-2.90;99.90
5304;DHT22;2674;49.722;10.892;2024-01-15T03:24:37;-2.90;99.90
5304;DHT22;2674;49.722;10.892;2024-01-15T03:27:06;-2.90;99.90
5304;DHT22;2674;49.722;10.892;2024-01-15T03:29:32;-2.80;99.90
5304;DHT22;2674;49.722;10.892;2024-01-15T03:31:58;-2.80;99.90
5304;DHT22;2674;49.722;10.892;2024-01-15T03:34:23;-2.80;99.90
5304;DHT22;2674;49.722;10.892;2024-01-15T03:36:49;-2.80;99.90
5304;DHT22;2674;49.722;10.892;2024-01-15T03:39:15;-2.80;99.90
5304;DHT22;2674;49.722;10.892;2024-01-15T03:41:41;-2.80;99.90
5304;DHT22;2674;49.722;10.892;2024-01-15T03:44:07;-2.80;99.90
5304;DHT22;2674;49.722;10.892;2024-01-15T03:46:32;-2.80;99.90
5304;DHT22;2674;49.722;10.892;2024-01-15T03:48:58;-2.70;99.90
5304;DHT22;2674;49.722;10.892;2024-01-15T03:51:24;-2.70;99.90
5304;DHT22;2674;49.722;10.892;2024-01-15T03:53:50;-2.70;99.90
5304;DHT22;2674;49.722;10.892;2024-01-15T03:56:16;-2.70;99.90
5304;DHT22;2674;49.722;10.892;2024-01-15T03:58:42;-2.70;99.90
5304;DHT22;2674;49.722;10.892;2024-01-15T04:01:09;-2.70;99.90
5304;DHT22;2674;49.722;10.892;2024-01-15T04:03:38;-2.70;99.90
5304;DHT22;2674;49.722;10.892;2024-01-15T04:06:05;-2.60;99.90
5304;DHT22;2674;49.722;10.892;2024-01-15T04:08:30;-2.60;99.90
5304;DHT22;2674;49.722;10.892;2024-01-15T04:10:56;-2.60;99.90
5304;DHT22;2674;49.722;10.892;2024-01-15T04:13:22;-2.60;99.90
5304;DHT22;2674;49.722;10.892;2024-01-15T04:15:48;-2.60;99.90
5304;DHT22;2674;49.722;10.892;2024-01-15T04:18:16;-2.50;99.90
5304;DHT22;2674;49.722;10.892;2024-01-15T04:20:43;-2.50;99.90
5304;DHT22;2674;49.722;10.892;2024-01-15T04:23:09;-2.50;99.90
5304;DHT22;2674;49.722;10.892;2024-01-15T04:25:34;-2.50;99.90
5304;DHT22;2674;49.722;10.892;2024-01-15T04:28:01;-2.50;99.90
5304;DHT22;2674;49.722;10.892;2024-01-15T04:30:26;-2.50;99.90
5304;DHT22;2674;49.722;10.892;2024-01-15T04:32:52;-2.50;99.90
5304;DHT22;2674;49.722;10.892;2024-01-15T04:35:18;-2.40;99.90
5304;DHT22;2674;49.722;10.892;2024-01-15T04:37:44;-2.40;99.90
5304;DHT22;2674;49.722;10.892;2024-01-15T04:40:10;-2.40;99.90
5304;DHT22;2674;49.722;10.892;2024-01-15T04:42:36;-2.40;99.90
5304;DHT22;2674;49.722;10.892;2024-01-15T04:45:02;-2.40;99.90
5304;DHT22;2674;49.722;10.892;2024-01-15T04:47:29;-2.30;99.90
5304;DHT22;2674;49.722;10.892;2024-01-15T04:49:54;-2.30;99.90
5304;DHT22;2674;49.722;10.892;2024-01-15T04:52:20;-2.30;99.90
5304;DHT22;2674;49.722;10.892;2024-01-15T04:54:46;-2.30;99.90
5304;DHT22;2674;49.722;10.892;2024-01-15T04:57:12;-2.30;99.90
5304;DHT22;2674;49.722;10.892;2024-01-15T04:59:37;-2.30;99.90
5304;DHT22;2674;49.722;10.892;2024-01-15T05:02:03;-2.30;99.90
5304;DHT22;2674;49.722;10.892;2024-01-15T05:04:29;-2.30;99.90
5304;DHT22;2674;49.722;10.892;2024-01-15T05:06:55;-2.20;99.90
5304;DHT22;2674;49.722;10.892;2024-01-15T05:09:21;-2.20;99.90
5304;DHT22;2674;49.722;10.892;2024-01-15T05:11:47;-2.20;99.90
5304;DHT22;2674;49.722;10.892;2024-01-15T05:14:13;-2.20;99.90
5304;DHT22;2674;49.722;10.892;2024-01-15T05:16:39;-2.20;99.90
5304;DHT22;2674;49.722;10.892;2024-01-15T05:19:07;-2.20;99.90
5304;DHT22;2674;49.722;10.892;2024-01-15T05:21:33;-2.20;99.90
5304;DHT22;2674;49.722;10.892;2024-01-15T05:23:59;-2.20;99.90
5304;DHT22;2674;49.722;10.892;2024-01-15T05:26:25;-2.20;99.90
5304;DHT22;2674;49.722;10.892;2024-01-15T05:28:50;-2.10;99.90
5304;DHT22;2674;49.722;10.892;2024-01-15T05:31:16;-2.10;99.90
5304;DHT22;2674;49.722;10.892;2024-01-15T05:33:42;-2.10;99.90
5304;DHT22;2674;49.722;10.892;2024-01-15T05:36:08;-2.10;99.90
5304;DHT22;2674;49.722;10.892;2024-01-15T05:38:33;-2.10;99.90
5304;DHT22;2674;49.722;10.892;2024-01-15T05:40:59;-2.10;99.90
5304;DHT22;2674;49.722;10.892;2024-01-15T05:43:25;-2.10;99.90
5304;DHT22;2674;49.722;10.892;2024-01-15T05:45:51;-2.10;99.90
5304;DHT22;2674;49.722;10.892;2024-01-15T05:48:16;-2.10;99.90
5304;DHT22;2674;49.722;10.892;2024-01-15T05:50:42;-2.10;99.90
5304;DHT22;2674;49.722;10.892;2024-01-15T05:53:08;-2.10;99.90
5304;DHT22;2674;49.722;10.892;2024-01-15T05:55:36;-2.20;99.90
5304;DHT22;2674;49.722;10.892;2024-01-15T05:58:02;-2.20;99.90
5304;DHT22;2674;49.722;10.892;2024-01-15T06:00:28;-2.20;99.90
5304;DHT22;2674;49.722;10.892;2024-01-15T06:02:54;-2.20;99.90
5304;DHT22;2674;49.722;10.892;2024-01-15T06:05:20;-2.20;99.90
5304;DHT22;2674;49.722;10.892;2024-01-15T06:07:46;-2.20;99.90
5304;DHT22;2674;49.722;10.892;2024-01-15T06:10:12;-2.20;99.90
5304;DHT22;2674;49.722;10.892;2024-01-15T06:12:37;-2.20;99.90
5304;DHT22;2674;49.722;10.892;2024-01-15T06:15:04;-2.20;99.90
5304;DHT22;2674;49.722;10.892;2024-01-15T06:17:30;-2.20;99.90
5304;DHT22;2674;49.722;10.892;2024-01-15T06:19:56;-2.20;99.90
5304;DHT22;2674;49.722;10.892;2024-01-15T06:22:23;-2.20;99.90
5304;DHT22;2674;49.722;10.892;2024-01-15T06:24:49;-2.20;99.90
5304;DHT22;2674;49.722;10.892;2024-01-15T06:27:14;-2.20;99.90
5304;DHT22;2674;49.722;10.892;2024-01-15T06:29:45;-2.20;99.90
5304;DHT22;2674;49.722;10.892;2024-01-15T06:32:12;-2.10;99.90
5304;DHT22;2674;49.722;10.892;2024-01-15T06:34:38;-2.10;99.90
5304;DHT22;2674;49.722;10.892;2024-01-15T06:37:04;-2.10;99.90
5304;DHT22;2674;49.722;10.892;2024-01-15T06:39:29;-2.10;99.90
5304;DHT22;2674;49.722;10.892;2024-01-15T06:41:55;-2.10;99.90
5304;DHT22;2674;49.722;10.892;2024-01-15T06:44:21;-2.10;99.90
5304;DHT22;2674;49.722;10.892;2024-01-15T06:46:47;-2.10;99.90
5304;DHT22;2674;49.722;10.892;2024-01-15T06:49:13;-2.10;99.90
5304;DHT22;2674;49.722;10.892;2024-01-15T06:51:39;-2.10;99.90
5304;DHT22;2674;49.722;10.892;2024-01-15T06:54:05;-2.10;99.90
5304;DHT22;2674;49.722;10.892;2024-01-15T06:56:33;-2.10;99.90
5304;DHT22;2674;49.722;10.892;2024-01-15T06:58:59;-2.10;99.90
5304;DHT22;2674;49.722;10.892;2024-01-15T07:01:25;-2.10;99.90
5304;DHT22;2674;49.722;10.892;2024-01-15T07:03:51;-2.10;99.90
5304;DHT22;2674;49.722;10.892;2024-01-15T07:06:18;-2.10;99.90
5304;DHT22;2674;49.722;10.892;2024-01-15T07:08:43;-2.10;99.90
5304;DHT22;2674;49.722;10.892;2024-01-15T07:11:09;-2.10;99.90
5304;DHT22;2674;49.722;10.892;2024-01-15T07:13:38;-2.10;99.90
5304;DHT22;2674;49.722;10.892;2024-01-15T07:16:04;-2.20;99.90
5304;DHT22;2674;49.722;10.892;2024-01-15T07:18:30;-2.20;99.90
5304;DHT22;2674;49.722;10.892;2024-01-15T07:20:56;-2.20;99.90
5304;DHT22;2674;49.722;10.892;2024-01-15T07:23:22;-2.20;99.90
5304;DHT22;2674;49.722;10.892;2024-01-15T07:25:48;-2.20;99.90
5304;DHT22;2674;49.722;10.892;2024-01-15T07:28:13;-2.20;99.90
5304;DHT22;2674;49.722;10.892;2024-01-15T07:30:39;-2.20;99.90
5304;DHT22;2674;49.722;10.892;2024-01-15T07:33:05;-2.20;99.90
5304;DHT22;2674;49.722;10.892;2024-01-15T07:35:32;-2.20;99.90
5304;DHT22;2674;49.722;10.892;2024-01-15T07:37:58;-2.20;99.90
5304;DHT22;2674;49.722;10.892;2024-01-15T07:40:24;-2.10;99.90
5304;DHT22;2674;49.722;10.892;2024-01-15T07:42:51;-2.10;99.90
5304;DHT22;2674;49.722;10.892;2024-01-15T07:45:16;-2.10;99.90
5304;DHT22;2674;49.722;10.892;2024-01-15T07:47:42;-2.10;99.90
5304;DHT22;2674;49.722;10.892;2024-01-15T07:50:08;-2.10;99.90
5304;DHT22;2674;49.722;10.892;2024-01-15T07:52:34;-2.10;99.90
5304;DHT22;2674;49.722;10.892;2024-01-15T07:55:00;-2.10;99.90
5304;DHT22;2674;49.722;10.892;2024-01-15T07:57:26;-2.10;99.90
5304;DHT22;2674;49.722;10.892;2024-01-15T07:59:55;-2.10;99.90
5304;DHT22;2674;49.722;10.892;2024-01-15T08:02:21;-2.00;99.90
5304;DHT22;2674;49.722;10.892;2024-01-15T08:04:47;-2.00;99.90
5304;DHT22;2674;49.722;10.892;2024-01-15T08:07:13;-2.00;99.90
5304;DHT22;2674;49.722;10.892;2024-01-15T08:09:39;-2.00;99.90
5304;DHT22;2674;49.722;10.892;2024-01-15T08:12:05;-2.00;99.90
5304;DHT22;2674;49.722;10.892;2024-01-15T08:14:31;-1.80;99.90
5304;DHT22;2674;49.722;10.892;2024-01-15T08:17:00;-1.70;99.90
5304;DHT22;2674;49.722;10.892;2024-01-15T08:19:27;-1.50;99.90
5304;DHT22;2674;49.722;10.892;2024-01-15T08:21:53;-1.50;99.90
5304;DHT22;2674;49.722;10.892;2024-01-15T08:24:18;-1.40;99.90
5304;DHT22;2674;49.722;10.892;2024-01-15T08:26:44;-1.60;99.90
5304;DHT22;2674;49.722;10.892;2024-01-15T08:29:10;-1.70;99.90
5304;DHT22;2674;49.722;10.892;2024-01-15T08:31:36;-1.70;99.90
5304;DHT22;2674;49.722;10.892;2024-01-15T08:34:02;-1.80;99.90
5304;DHT22;2674;49.722;10.892;2024-01-15T08:36:28;-1.80;99.90
5304;DHT22;2674;49.722;10.892;2024-01-15T08:38:57;-1.80;99.90
5304;DHT22;2674;49.722;10.892;2024-01-15T08:41:22;-1.80;99.90
5304;DHT22;2674;49.722;10.892;2024-01-15T08:43:48;-1.80;99.90
5304;DHT22;2674;49.722;10.892;2024-01-15T08:46:14;-1.80;99.90
5304;DHT22;2674;49.722;10.892;2024-01-15T08:48:40;-1.80;99.90
5304;DHT22;2674;49.722;10.892;2024-01-15T08:51:06;-1.80;99.90
5304;DHT22;2674;49.722;10.892;2024-01-15T08:53:33;-1.80;99.90
5304;DHT22;2674;49.722;10.892;2024-01-15T08:55:59;-1.70;99.90
5304;DHT22;2674;49.722;10.892;2024-01-15T08:58:25;-1.70;99.90
5304;DHT22;2674;49.722;10.892;2024-01-15T09:00:51;-1.60;99.90
5304;DHT22;2674;49.722;10.892;2024-01-15T09:03:17;-1.50;99.90
5304;DHT22;2674;49.722;10.892;2024-01-15T09:05:43;-1.50;99.90
5304;DHT22;2674;49.722;10.892;2024-01-15T09:08:09;-1.40;99.90
5304;DHT22;2674;49.722;10.892;2024-01-15T09:10:35;-1.40;99.90
5304;DHT22;2674;49.722;10.892;2024-01-15T09:13:01;-1.40;99.90
5304;DHT22;2674;49.722;10.892;2024-01-15T09:15:29;-1.40;99.90
5304;DHT22;2674;49.722;10.892;2024-01-15T09:17:55;-1.30;99.90
5304;DHT22;2674;49.722;10.892;2024-01-15T09:20:23;-1.30;99.90
5304;DHT22;2674;49.722;10.892;2024-01-15T09:22:49;-1.40;99.90
5304;DHT22;2674;49.722;10.892;2024-01-15T09:25:14;-1.40;99.90
5304;DHT22;2674;49.722;10.892;2024-01-15T09:27:40;-1.40;99.90
5304;DHT22;2674;49.722;10.892;2024-01-15T09:30:06;-1.40;99.90
5304;DHT22;2674;49.722;10.892;2024-01-15T09:32:33;-1.40;99.90
5304;DHT22;2674;49.722;10.892;2024-01-15T09:35:00;-1.30;99.90
5304;DHT22;2674;49.722;10.892;2024-01-15T09:37:25;-1.30;99.90
5304;DHT22;2674;49.722;10.892;2024-01-15T09:39:51;-1.30;99.90
5304;DHT22;2674;49.722;10.892;2024-01-15T09:42:17;-1.30;99.90
5304;DHT22;2674;49.722;10.892;2024-01-15T09:44:44;-1.30;99.90
5304;DHT22;2674;49.722;10.892;2024-01-15T09:47:11;-1.30;99.90
5304;DHT22;2674;49.722;10.892;2024-01-15T09:49:37;-1.30;99.90
5304;DHT22;2674;49.722;10.892;2024-01-15T09:52:05;-1.20;99.90
5304;DHT22;2674;49.722;10.892;2024-01-15T09:54:31;-1.20;99.90
5304;DHT22;2674;49.722;10.892;2024-01-15T09:56:56;-1.20;99.90
5304;DHT22;2674;49.722;10.892;2024-01-15T09:59:22;-1.20;99.90
5304;DHT22;2674;49.722;10.892;2024-01-15T10:01:50;-1.20;99.90
5304;DHT22;2674;49.722;10.892;2024-01-15T10:04:17;-1.10;99.90
5304;DHT22;2674;49.722;10.892;2024-01-15T10:06:45;-1.10;99.90
5304;DHT22;2674;49.722;10.892;2024-01-15T10:09:13;-1.10;99.90
5304;DHT22;2674;49.722;10.892;2024-01-15T10:11:42;-1.10;99.90
5304;DHT22;2674;49.722;10.892;2024-01-15T10:14:12;-1.10;99.90
5304;DHT22;2674;49.722;10.892;2024-01-15T10:16:41;-1.00;99.90
5304;DHT22;2674;49.722;10.892;2024-01-15T10:19:08;-1.00;99.90
5304;DHT22;2674;49.722;10.892;2024-01-15T10:21:34;-1.00;99.90
5304;DHT22;2674;49.722;10.892;2024-01-15T10:24:01;-1.00;99.90
5304;DHT22;2674;49.722;10.892;2024-01-15T10:26:28;-1.00;99.90
5304;DHT22;2674;49.722;10.892;2024-01-15T10:28:54;-1.00;99.90
5304;DHT22;2674;49.722;10.892;2024-01-15T10:31:20;-0.90;99.90
5304;DHT22;2674;49.722;10.892;2024-01-15T10:33:50;-0.90;99.90
5304;DHT22;2674;49.722;10.892;2024-01-15T10:36:17;-0.90;99.90
5304;DHT22;2674;49.722;10.892;2024-01-15T10:38:46;-0.80;99.90
5304;DHT22;2674;49.722;10.892;2024-01-15T10:41:12;-0.80;99.90
5304;DHT22;2674;49.722;10.892;2024-01-15T10:43:38;-0.90;99.90
5304;DHT22;2674;49.722;10.892;2024-01-15T10:46:07;-0.90;99.90
5304;DHT22;2674;49.722;10.892;2024-01-15T10:48:33;-0.90;99.90
5304;DHT22;2674;49.722;10.892;2024-01-15T10:51:01;-0.80;99.90
5304;DHT22;2674;49.722;10.892;2024-01-15T10:53:38;-0.80;99.90
5304;DHT22;2674;49.722;10.892;2024-01-15T10:56:05;-0.80;99.90
5304;DHT22;2674;49.722;10.892;2024-01-15T10:58:31;-0.80;99.90
5304;DHT22;2674;49.722;10.892;2024-01-15T11:00:59;-0.70;99.90
5304;DHT22;2674;49.722;10.892;2024-01-15T11:03:25;-0.70;99.90
5304;DHT22;2674;49.722;10.892;2024-01-15T11:05:53;-0.70;99.90
5304;DHT22;2674;49.722;10.892;2024-01-15T11:08:20;-0.70;99.90
5304;DHT22;2674;49.722;10.892;2024-01-15T11:10:52;-0.70;99.90
5304;DHT22;2674;49.722;10.892;2024-01-15T11:13:24;-0.70;99.90
5304;DHT22;2674;49.722;10.892;2024-01-15T11:16:06;-0.70;99.90
5304;DHT22;2674;49.722;10.892;2024-01-15T11:21:24;-0.70;99.90
5304;DHT22;2674;49.722;10.892;2024-01-15T11:23:59;-0.70;99.90
5304;DHT22;2674;49.722;10.892;2024-01-15T11:28:58;-0.60;99.90
5304;DHT22;2674;49.722;10.892;2024-01-15T11:34:12;-0.40;99.90
5304;DHT22;2674;49.722;10.892;2024-01-15T11:42:04;-0.30;99.90
5304;DHT22;2674;49.722;10.892;2024-01-15T11:44:30;-0.30;99.90
5304;DHT22;2674;49.722;10.892;2024-01-15T11:47:01;-0.30;99.90
5304;DHT22;2674;49.722;10.892;2024-01-15T11:49:59;-0.30;99.90
5304;DHT22;2674;49.722;10.892;2024-01-15T11:52:26;-0.20;99.90
5304;DHT22;2674;49.722;10.892;2024-01-15T11:57:52;-0.30;99.90
5304;DHT22;2674;49.722;10.892;2024-01-15T12:00:23;0.00;99.90
5304;DHT22;2674;49.722;10.892;2024-01-15T12:02:49;0.00;99.90
5304;DHT22;2674;49.722;10.892;2024-01-15T12:05:18;0.10;99.90
5304;DHT22;2674;49.722;10.892;2024-01-15T12:07:46;0.10;99.90
5304;DHT22;2674;49.722;10.892;2024-01-15T12:10:20;0.20;99.90
5304;DHT22;2674;49.722;10.892;2024-01-15T12:13:05;0.30;99.90
5304;DHT22;2674;49.722;10.892;2024-01-15T12:15:32;0.30;99.90
5304;DHT22;2674;49.722;10.892;2024-01-15T12:18:00;0.30;99.90
5304;DHT22;2674;49.722;10.892;2024-01-15T12:20:28;0.30;99.90
5304;DHT22;2674;49.722;10.892;2024-01-15T12:22:54;0.30;99.90
5304;DHT22;2674;49.722;10.892;2024-01-15T12:25:24;0.20;99.90
5304;DHT22;2674;49.722;10.892;2024-01-15T12:27:51;0.10;99.90
5304;DHT22;2674;49.722;10.892;2024-01-15T12:30:17;0.00;99.90
5304;DHT22;2674;49.722;10.892;2024-01-15T12:32:44;0.00;99.90
5304;DHT22;2674;49.722;10.892;2024-01-15T12:35:11;-0.10;99.90
5304;DHT22;2674;49.722;10.892;2024-01-15T12:37:41;-0.10;99.90
5304;DHT22;2674;49.722;10.892;2024-01-15T12:40:08;-0.10;99.90
5304;DHT22;2674;49.722;10.892;2024-01-15T12:42:37;-0.10;99.90
5304;DHT22;2674;49.722;10.892;2024-01-15T12:45:09;-0.10;99.90
5304;DHT22;2674;49.722;10.892;2024-01-15T12:47:37;-0.10;99.90
5304;DHT22;2674;49.722;10.892;2024-01-15T12:50:06;-0.20;99.90
5304;DHT22;2674;49.722;10.892;2024-01-15T12:52:32;-0.20;99.90
5304;DHT22;2674;49.722;10.892;2024-01-15T12:54:58;-0.10;99.90
5304;DHT22;2674;49.722;10.892;2024-01-15T12:57:24;-0.10;99.90
5304;DHT22;2674;49.722;10.892;2024-01-15T12:59:50;-0.10;99.90
5304;DHT22;2674;49.722;10.892;2024-01-15T13:02:16;-0.10;99.90
5304;DHT22;2674;49.722;10.892;2024-01-15T13:04:42;-0.10;99.90
5304;DHT22;2674;49.722;10.892;2024-01-15T13:07:08;-0.20;99.90
5304;DHT22;2674;49.722;10.892;2024-01-15T13:09:35;-0.20;99.90
5304;DHT22;2674;49.722;10.892;2024-01-15T13:12:04;-0.20;99.90
5304;DHT22;2674;49.722;10.892;2024-01-15T13:14:31;-0.20;99.90
5304;DHT22;2674;49.722;10.892;2024-01-15T13:16:58;-0.20;99.90
5304;DHT22;2674;49.722;10.892;2024-01-15T13:19:25;-0.20;99.90
5304;DHT22;2674;49.722;10.892;2024-01-15T13:21:51;-0.20;99.90
5304;DHT22;2674;49.722;10.892;2024-01-15T13:24:17;-0.30;99.90
5304;DHT22;2674;49.722;10.892;2024-01-15T13:26:43;-0.30;99.90
5304;DHT22;2674;49.722;10.892;2024-01-15T13:29:09;-0.20;99.90
5304;DHT22;2674;49.722;10.892;2024-01-15T13:31:35;-0.20;99.90
5304;DHT22;2674;49.722;10.892;2024-01-15T13:34:01;-0.20;99.90
5304;DHT22;2674;49.722;10.892;2024-01-15T13:36:27;-0.20;99.90
5304;DHT22;2674;49.722;10.892;2024-01-15T13:38:53;-0.20;99.90
5304;DHT22;2674;49.722;10.892;2024-01-15T13:41:22;-0.30;99.90
5304;DHT22;2674;49.722;10.892;2024-01-15T13:43:54;-0.30;99.90
5304;DHT22;2674;49.722;10.892;2024-01-15T13:46:24;-0.30;99.90
5304;DHT22;2674;49.722;10.892;2024-01-15T13:48:50;-0.30;99.90
5304;DHT22;2674;49.722;10.892;2024-01-15T13:51:15;-0.20;99.90
5304;DHT22;2674;49.722;10.892;2024-01-15T13:53:41;-0.20;99.90
5304;DHT22;2674;49.722;10.892;2024-01-15T13:56:07;-0.10;99.90
5304;DHT22;2674;49.722;10.892;2024-01-15T13:58:36;-0.10;99.90
5304;DHT22;2674;49.722;10.892;2024-01-15T14:01:03;-0.10;99.90
5304;DHT22;2674;49.722;10.892;2024-01-15T14:03:31;-0.10;99.90
5304;DHT22;2674;49.722;10.892;2024-01-15T14:05:57;-0.10;99.90
5304;DHT22;2674;49.722;10.892;2024-01-15T14:08:23;0.00;99.90
5304;DHT22;2674;49.722;10.892;2024-01-15T14:10:49;0.00;99.90
5304;DHT22;2674;49.722;10.892;2024-01-15T14:13:15;0.00;99.90
5304;DHT22;2674;49.722;10.892;2024-01-15T14:15:41;0.00;99.90
5304;DHT22;2674;49.722;10.892;2024-01-15T14:18:07;0.00;99.90
5304;DHT22;2674;49.722;10.892;2024-01-15T14:20:33;-0.10;99.90
5304;DHT22;2674;49.722;10.892;2024-01-15T14:22:58;-0.10;99.90
5304;DHT22;2674;49.722;10.892;2024-01-15T14:25:24;-0.10;99.90
5304;DHT22;2674;49.722;10.892;2024-01-15T14:27:50;-0.10;99.90
5304;DHT22;2674;49.722;10.892;2024-01-15T14:30:16;-0.10;99.90
5304;DHT22;2674;49.722;10.892;2024-01-15T14:32:45;-0.10;99.90
5304;DHT22;2674;49.722;10.892;2024-01-15T14:35:11;-0.20;99.90
5304;DHT22;2674;49.722;10.892;2024-01-15T14:37:37;-0.10;99.90
5304;DHT22;2674;49.722;10.892;2024-01-15T14:40:05;-0.10;99.90
5304;DHT22;2674;49.722;10.892;2024-01-15T14:42:34;-0.10;99.90
5304;DHT22;2674;49.722;10.892;2024-01-15T14:45:00;-0.20;99.90
5304;DHT22;2674;49.722;10.892;2024-01-15T14:47:28;-0.20;99.90
5304;DHT22;2674;49.722;10.892;2024-01-15T14:49:54;-0.20;99.90
5304;DHT22;2674;49.722;10.892;2024-01-15T14:52:23;-0.20;99.90
5304;DHT22;2674;49.722;10.892;2024-01-15T14:54:49;-0.10;99.90
5304;DHT22;2674;49.722;10.892;2024-01-15T14:57:15;-0.10;99.90
5304;DHT22;2674;49.722;10.892;2024-01-15T14:59:41;-0.20;99.90
5304;DHT22;2674;49.722;10.892;2024-01-15T15:02:07;-0.20;99.90
5304;DHT22;2674;49.722;10.892;2024-01-15T15:04:33;-0.30;99.90
5304;DHT22;2674;49.722;10.892;2024-01-15T15:06:58;-0.30;99.90
5304;DHT22;2674;49.722;10.892;2024-01-15T15:09:24;-0.30;99.90
5304;DHT22;2674;49.722;10.892;2024-01-15T15:11:50;-0.30;99.90
5304;DHT22;2674;49.722;10.892;2024-01-15T15:14:20;-0.30;99.90
5304;DHT22;2674;49.722;10.892;2024-01-15T15:16:47;-0.30;99.90
5304;DHT22;2674;49.722;10.892;2024-01-15T15:19:13;-0.40;99.90
5304;DHT22;2674;49.722;10.892;2024-01-15T15:21:38;-0.40;99.90
5304;DHT22;2674;49.722;10.892;2024-01-15T15:24:04;-0.40;99.90
5304;DHT22;2674;49.722;10.892;2024-01-15T15:26:30;-0.40;99.90
5304;DHT22;2674;49.722;10.892;2024-01-15T15:28:56;-0.40;99.90
5304;DHT22;2674;49.722;10.892;2024-01-15T15:31:22;-0.50;99.90
5304;DHT22;2674;49.722;10.892;2024-01-15T15:33:47;-0.50;99.90
5304;DHT22;2674;49.722;10.892;2024-01-15T15:36:13;-0.50;99.90
5304;DHT22;2674;49.722;10.892;2024-01-15T15:38:39;-0.50;99.90
5304;DHT22;2674;49.722;10.892;2024-01-15T15:41:05;-0.50;99.90
5304;DHT22;2674;49.722;10.892;2024-01-15T15:43:30;-0.50;99.90
5304;DHT22;2674;49.722;10.892;2024-01-15T15:45:57;-0.40;99.90
5304;DHT22;2674;49.722;10.892;2024-01-15T15:48:25;-0.50;99.90
5304;DHT22;2674;49.722;10.892;2024-01-15T15:50:51;-0.40;99.90
5304;DHT22;2674;49.722;10.892;2024-01-15T15:53:19;-0.40;99.90
5304;DHT22;2674;49.722;10.892;2024-01-15T15:55:45;-0.40;99.90
5304;DHT22;2674;49.722;10.892;2024-01-15T15:58:11;-0.40;99.90
5304;DHT22;2674;49.722;10.892;2024-01-15T16:00:37;-0.40;99.90